sensor_id;sensor_type;location;lat;lon;timestamp;pressure;altitude;pressure_sealevel;temperature;humidity
6194;BME280;3130;41.564;23.280;2024-01-30T00:00:39;100768.06;;;0.67;66.54
6194;BME280;3130;41.564;23.280;2024-01-30T00:03:06;100742.66;;;0.49;66.09
6194;BME280;3130;41.564;23.280;2024-01-30T00:05:33;100772.25;;;0.64;66.31
6194;BME280;3130;41.564;23.280;2024-01-30T00:08:01;100766.34;;;0.62;66.06
6194;BME280;3130;41.564;23.280;2024-01-30T00:10:28;100710.44;;;0.21;65.94
6194;BME280;3130;41.564;23.280;2024-01-30T00:12:56;100772.09;;;0.49;66.37
6194;BME280;3130;41.564;23.280;2024-01-30T00:15:25;100773.72;;;0.42;66.41
6194;BME280;3130;41.564;23.280;2024-01-30T00:17:52;100694.19;;;-0.04;65.88
6194;BME280;3130;41.564;23.280;2024-01-30T00:20:20;100769.63;;;0.55;65.84
6194;BME280;3130;41.564;23.280;2024-01-30T00:22:48;100734.00;;;0.25;64.57
6194;BME280;3130;41.564;23.280;2024-01-30T00:25:15;100691.81;;;0.07;63.79
6194;BME280;3130;41.564;23.280;2024-01-30T00:27:42;100738.25;;;0.29;63.98
6194;BME280;3130;41.564;23.280;2024-01-30T00:30:11;100724.78;;;0.27;63.27
6194;BME280;3130;41.564;23.280;2024-01-30T00:32:40;100739.16;;;0.34;63.14
6194;BME280;3130;41.564;23.280;2024-01-30T00:35:07;100706.94;;;0.10;63.82
6194;BME280;3130;41.564;23.280;2024-01-30T00:37:36;100772.88;;;0.40;63.25
6194;BME280;3130;41.564;23.280;2024-01-30T00:40:04;100768.72;;;0.48;63.20
6194;BME280;3130;41.564;23.280;2024-01-30T00:42:31;100727.38;;;0.34;62.82
6194;BME280;3130;41.564;23.280;2024-01-30T00:44:58;100737.66;;;0.54;61.99
6194;BME280;3130;41.564;23.280;2024-01-30T00:47:26;100769.78;;;0.70;61.91
6194;BME280;3130;41.564;23.280;2024-01-30T00:49:56;100767.25;;;0.71;59.31
6194;BME280;3130;41.564;23.280;2024-01-30T00:52:23;100651.41;;;0.03;59.01
6194;BME280;3130;41.564;23.280;2024-01-30T00:54:50;100728.31;;;0.45;58.97
6194;BME280;3130;41.564;23.280;2024-01-30T00:57:17;100777.31;;;0.67;58.96
6194;BME280;3130;41.564;23.280;2024-01-30T00:59:45;100776.44;;;0.63;58.96
6194;BME280;3130;41.564;23.280;2024-01-30T01:02:12;100773.97;;;0.68;59.37
6194;BME280;3130;41.564;23.280;2024-01-30T01:04:40;100739.19;;;0.40;59.29
6194;BME280;3130;41.564;23.280;2024-01-30T01:07:09;100779.91;;;0.74;58.96
6194;BME280;3130;41.564;23.280;2024-01-30T01:09:36;100690.28;;;0.21;58.59
6194;BME280;3130;41.564;23.280;2024-01-30T01:12:04;100770.63;;;0.70;58.20
6194;BME280;3130;41.564;23.280;2024-01-30T01:14:32;100680.03;;;0.06;58.58
6194;BME280;3130;41.564;23.280;2024-01-30T01:16:59;100769.69;;;0.61;59.18
6194;BME280;3130;41.564;23.280;2024-01-30T01:19:26;100774.69;;;0.56;58.75
6194;BME280;3130;41.564;23.280;2024-01-30T01:21:54;100773.00;;;0.57;59.70
6194;BME280;3130;41.564;23.280;2024-01-30T01:24:22;100692.66;;;0.06;59.46
6194;BME280;3130;41.564;23.280;2024-01-30T01:26:50;100585.94;;;-0.70;59.36
6194;BME280;3130;41.564;23.280;2024-01-30T01:29:17;100660.41;;;-0.21;59.56
6194;BME280;3130;41.564;23.280;2024-01-30T01:31:46;100771.31;;;0.56;59.89
6194;BME280;3130;41.564;23.280;2024-01-30T01:34:14;100754.44;;;0.49;60.09
6194;BME280;3130;41.564;23.280;2024-01-30T01:36:41;100684.16;;;-0.02;61.54
6194;BME280;3130;41.564;23.280;2024-01-30T01:39:08;100761.91;;;0.38;61.85
6194;BME280;3130;41.564;23.280;2024-01-30T01:41:37;100623.09;;;-0.51;63.16
6194;BME280;3130;41.564;23.280;2024-01-30T01:44:05;100766.94;;;0.40;62.83
6194;BME280;3130;41.564;23.280;2024-01-30T01:46:33;100768.66;;;0.39;62.17
6194;BME280;3130;41.564;23.280;2024-01-30T01:49:02;100771.19;;;0.42;62.24
6194;BME280;3130;41.564;23.280;2024-01-30T01:51:33;100763.53;;;0.32;63.27
6194;BME280;3130;41.564;23.280;2024-01-30T01:54:03;100721.09;;;-0.05;64.78
6194;BME280;3130;41.564;23.280;2024-01-30T01:56:30;100582.47;;;-0.81;63.96
6194;BME280;3130;41.564;23.280;2024-01-30T01:59:04;100761.63;;;0.13;64.46
6194;BME280;3130;41.564;23.280;2024-01-30T02:01:32;100770.97;;;0.21;64.89
6194;BME280;3130;41.564;23.280;2024-01-30T02:04:00;100731.13;;;-0.06;65.18
6194;BME280;3130;41.564;23.280;2024-01-30T02:06:28;100749.81;;;0.10;65.98
6194;BME280;3130;41.564;23.280;2024-01-30T02:08:55;100777.69;;;0.19;64.96
6194;BME280;3130;41.564;23.280;2024-01-30T02:11:22;100672.63;;;-0.56;65.06
6194;BME280;3130;41.564;23.280;2024-01-30T02:13:50;100749.41;;;-0.25;65.32
6194;BME280;3130;41.564;23.280;2024-01-30T02:16:19;100767.06;;;-0.24;64.70
6194;BME280;3130;41.564;23.280;2024-01-30T02:18:46;100771.16;;;-0.32;64.50
6194;BME280;3130;41.564;23.280;2024-01-30T02:21:16;100761.94;;;-0.30;64.92
6194;BME280;3130;41.564;23.280;2024-01-30T02:23:43;100734.91;;;-0.44;64.56
6194;BME280;3130;41.564;23.280;2024-01-30T02:26:11;100764.59;;;-0.21;64.91
6194;BME280;3130;41.564;23.280;2024-01-30T02:28:39;100760.25;;;-0.31;65.33
6194;BME280;3130;41.564;23.280;2024-01-30T02:31:06;100644.50;;;-0.86;65.40
6194;BME280;3130;41.564;23.280;2024-01-30T02:33:33;100615.50;;;-1.23;64.51
6194;BME280;3130;41.564;23.280;2024-01-30T02:36:00;100704.41;;;-0.64;65.22
6194;BME280;3130;41.564;23.280;2024-01-30T02:38:29;100736.41;;;-0.55;64.66
6194;BME280;3130;41.564;23.280;2024-01-30T02:40:56;100760.91;;;-0.45;65.38
6194;BME280;3130;41.564;23.280;2024-01-30T02:43:23;100759.13;;;-0.52;65.58
6194;BME280;3130;41.564;23.280;2024-01-30T02:45:51;100758.41;;;-0.42;65.94
6194;BME280;3130;41.564;23.280;2024-01-30T02:48:18;100709.13;;;-0.86;65.95
6194;BME280;3130;41.564;23.280;2024-01-30T02:50:45;100761.72;;;-0.48;65.63
6194;BME280;3130;41.564;23.280;2024-01-30T02:53:12;100729.31;;;-0.82;66.61
6194;BME280;3130;41.564;23.280;2024-01-30T02:55:41;100573.53;;;-1.81;67.15
6194;BME280;3130;41.564;23.280;2024-01-30T02:58:08;100741.13;;;-0.79;67.46
6194;BME280;3130;41.564;23.280;2024-01-30T03:00:36;100753.91;;;-0.66;67.30
6194;BME280;3130;41.564;23.280;2024-01-30T03:03:04;100757.91;;;-0.78;68.01
6194;BME280;3130;41.564;23.280;2024-01-30T03:05:31;100752.03;;;-0.79;68.12
6194;BME280;3130;41.564;23.280;2024-01-30T03:07:58;100758.88;;;-0.72;67.97
6194;BME280;3130;41.564;23.280;2024-01-30T03:10:25;100758.31;;;-0.50;67.83
6194;BME280;3130;41.564;23.280;2024-01-30T03:12:54;100763.53;;;-0.38;67.90
6194;BME280;3130;41.564;23.280;2024-01-30T03:15:21;100691.03;;;-0.58;67.70
6194;BME280;3130;41.564;23.280;2024-01-30T03:17:49;100759.91;;;0.09;67.15
6194;BME280;3130;41.564;23.280;2024-01-30T03:20:16;100733.78;;;0.02;64.48
6194;BME280;3130;41.564;23.280;2024-01-30T03:22:43;100751.25;;;-0.12;65.08
6194;BME280;3130;41.564;23.280;2024-01-30T03:25:11;100753.13;;;0.03;65.47
6194;BME280;3130;41.564;23.280;2024-01-30T03:27:38;100650.00;;;-0.51;65.18
6194;BME280;3130;41.564;23.280;2024-01-30T03:30:08;100754.19;;;0.23;66.15
6194;BME280;3130;41.564;23.280;2024-01-30T03:32:35;100746.06;;;0.56;65.78
6194;BME280;3130;41.564;23.280;2024-01-30T03:35:03;100633.75;;;0.00;65.31
6194;BME280;3130;41.564;23.280;2024-01-30T03:37:30;100743.84;;;0.86;64.94
6194;BME280;3130;41.564;23.280;2024-01-30T03:39:58;100742.16;;;0.91;64.77
6194;BME280;3130;41.564;23.280;2024-01-30T03:42:25;100654.16;;;0.27;64.79
6194;BME280;3130;41.564;23.280;2024-01-30T03:44:52;100740.25;;;0.63;62.53
6194;BME280;3130;41.564;23.280;2024-01-30T03:47:22;100737.78;;;0.67;63.76
6194;BME280;3130;41.564;23.280;2024-01-30T03:49:49;100733.59;;;0.68;63.84
6194;BME280;3130;41.564;23.280;2024-01-30T03:52:17;100663.91;;;-0.09;63.06
6194;BME280;3130;41.564;23.280;2024-01-30T03:54:44;100706.88;;;0.00;62.93
6194;BME280;3130;41.564;23.280;2024-01-30T03:57:11;100726.22;;;0.02;62.85
6194;BME280;3130;41.564;23.280;2024-01-30T03:59:41;100744.06;;;0.20;63.12
6194;BME280;3130;41.564;23.280;2024-01-30T04:02:10;100748.44;;;0.35;63.38
6194;BME280;3130;41.564;23.280;2024-01-30T04:04:39;100682.50;;;0.02;64.20
6194;BME280;3130;41.564;23.280;2024-01-30T04:07:06;100740.16;;;0.54;63.52
6194;BME280;3130;41.564;23.280;2024-01-30T04:09:33;100763.94;;;0.75;63.48
6194;BME280;3130;41.564;23.280;2024-01-30T04:12:01;100729.41;;;0.70;62.66
6194;BME280;3130;41.564;23.280;2024-01-30T04:14:28;100692.09;;;0.39;61.95
6194;BME280;3130;41.564;23.280;2024-01-30T04:16:56;100770.59;;;0.67;61.27
6194;BME280;3130;41.564;23.280;2024-01-30T04:19:23;100776.56;;;0.77;61.64
6194;BME280;3130;41.564;23.280;2024-01-30T04:21:51;100778.25;;;0.78;61.47
6194;BME280;3130;41.564;23.280;2024-01-30T04:24:19;100784.13;;;0.75;60.62
6194;BME280;3130;41.564;23.280;2024-01-30T04:26:46;100773.00;;;0.57;61.42
6194;BME280;3130;41.564;23.280;2024-01-30T04:29:13;100783.31;;;0.79;61.82
6194;BME280;3130;41.564;23.280;2024-01-30T04:31:41;100741.16;;;0.69;61.67
6194;BME280;3130;41.564;23.280;2024-01-30T04:34:08;100732.03;;;0.85;61.49
6194;BME280;3130;41.564;23.280;2024-01-30T04:36:35;100771.84;;;1.17;61.09
6194;BME280;3130;41.564;23.280;2024-01-30T04:39:04;100695.03;;;0.87;60.81
6194;BME280;3130;41.564;23.280;2024-01-30T04:41:31;100776.25;;;1.45;60.75
6194;BME280;3130;41.564;23.280;2024-01-30T04:43:59;100763.63;;;1.51;60.27
6194;BME280;3130;41.564;23.280;2024-01-30T04:46:26;100763.72;;;1.67;60.42
6194;BME280;3130;41.564;23.280;2024-01-30T04:48:54;100762.09;;;1.77;59.82
6194;BME280;3130;41.564;23.280;2024-01-30T04:51:21;100764.63;;;1.80;58.95
6194;BME280;3130;41.564;23.280;2024-01-30T04:53:48;100762.94;;;1.74;59.13
6194;BME280;3130;41.564;23.280;2024-01-30T04:56:17;100727.44;;;1.55;58.91
6194;BME280;3130;41.564;23.280;2024-01-30T04:58:44;100702.94;;;1.42;58.99
6194;BME280;3130;41.564;23.280;2024-01-30T05:01:15;100773.63;;;1.30;57.78
6194;BME280;3130;41.564;23.280;2024-01-30T05:03:42;100755.38;;;0.58;57.91
6194;BME280;3130;41.564;23.280;2024-01-30T05:06:10;100782.44;;;0.74;60.14
6194;BME280;3130;41.564;23.280;2024-01-30T05:08:37;100578.72;;;-0.44;58.65
6194;BME280;3130;41.564;23.280;2024-01-30T05:11:05;100783.94;;;0.56;59.77
6194;BME280;3130;41.564;23.280;2024-01-30T05:13:34;100777.91;;;0.42;58.96
6194;BME280;3130;41.564;23.280;2024-01-30T05:16:02;100797.38;;;0.55;59.19
6194;BME280;3130;41.564;23.280;2024-01-30T05:18:30;100790.00;;;0.76;58.82
6194;BME280;3130;41.564;23.280;2024-01-30T05:20:57;100697.66;;;0.05;59.10
6194;BME280;3130;41.564;23.280;2024-01-30T05:23:24;100794.16;;;0.71;58.97
6194;BME280;3130;41.564;23.280;2024-01-30T05:25:51;100800.25;;;0.91;59.07
6194;BME280;3130;41.564;23.280;2024-01-30T05:28:19;100800.38;;;1.02;57.56
6194;BME280;3130;41.564;23.280;2024-01-30T05:30:47;100787.97;;;1.31;57.93
6194;BME280;3130;41.564;23.280;2024-01-30T05:33:14;100799.03;;;1.52;57.68
6194;BME280;3130;41.564;23.280;2024-01-30T05:35:42;100805.91;;;1.76;55.81
6194;BME280;3130;41.564;23.280;2024-01-30T05:38:10;100799.25;;;1.91;56.04
6194;BME280;3130;41.564;23.280;2024-01-30T05:40:38;100799.34;;;2.09;54.92
6194;BME280;3130;41.564;23.280;2024-01-30T05:43:05;100804.41;;;2.18;55.25
6194;BME280;3130;41.564;23.280;2024-01-30T05:45:33;100808.69;;;2.28;54.56
6194;BME280;3130;41.564;23.280;2024-01-30T05:48:02;100807.00;;;2.33;54.13
6194;BME280;3130;41.564;23.280;2024-01-30T05:50:30;100754.59;;;1.95;53.20
6194;BME280;3130;41.564;23.280;2024-01-30T05:52:57;100809.53;;;2.37;54.19
6194;BME280;3130;41.564;23.280;2024-01-30T05:55:24;100793.53;;;2.43;53.47
6194;BME280;3130;41.564;23.280;2024-01-30T05:57:51;100801.94;;;2.37;52.48
6194;BME280;3130;41.564;23.280;2024-01-30T06:00:19;100806.97;;;2.30;52.34
6194;BME280;3130;41.564;23.280;2024-01-30T06:02:46;100769.84;;;2.15;52.47
6194;BME280;3130;41.564;23.280;2024-01-30T06:05:15;100830.66;;;2.47;53.22
6194;BME280;3130;41.564;23.280;2024-01-30T06:07:42;100780.84;;;2.29;52.96
6194;BME280;3130;41.564;23.280;2024-01-30T06:10:10;100830.63;;;2.35;52.68
6194;BME280;3130;41.564;23.280;2024-01-30T06:12:38;100823.03;;;2.33;53.27
6194;BME280;3130;41.564;23.280;2024-01-30T06:15:06;100839.00;;;2.23;54.10
6194;BME280;3130;41.564;23.280;2024-01-30T06:17:33;100828.06;;;2.24;54.69
6194;BME280;3130;41.564;23.280;2024-01-30T06:20:00;100820.47;;;2.23;54.55
6194;BME280;3130;41.564;23.280;2024-01-30T06:22:29;100754.53;;;1.84;54.38
6194;BME280;3130;41.564;23.280;2024-01-30T06:24:56;100811.22;;;2.25;54.32
6194;BME280;3130;41.564;23.280;2024-01-30T06:27:24;100821.34;;;2.29;53.49
6194;BME280;3130;41.564;23.280;2024-01-30T06:29:51;100838.25;;;2.45;54.07
6194;BME280;3130;41.564;23.280;2024-01-30T06:32:18;100831.56;;;2.61;52.37
6194;BME280;3130;41.564;23.280;2024-01-30T06:34:45;100818.91;;;2.61;52.77
6194;BME280;3130;41.564;23.280;2024-01-30T06:37:13;100805.34;;;2.45;52.55
6194;BME280;3130;41.564;23.280;2024-01-30T06:39:41;100761.44;;;2.19;52.09
6194;BME280;3130;41.564;23.280;2024-01-30T06:42:09;100836.63;;;2.67;51.96
6194;BME280;3130;41.564;23.280;2024-01-30T06:44:37;100737.78;;;2.14;51.48
6194;BME280;3130;41.564;23.280;2024-01-30T06:47:04;100768.16;;;2.17;51.23
6194;BME280;3130;41.564;23.280;2024-01-30T06:49:32;100735.25;;;2.19;51.18
6194;BME280;3130;41.564;23.280;2024-01-30T06:51:59;100828.19;;;2.62;50.92
6194;BME280;3130;41.564;23.280;2024-01-30T06:54:26;100829.03;;;2.68;50.64
6194;BME280;3130;41.564;23.280;2024-01-30T06:56:55;100829.06;;;2.80;50.73
6194;BME280;3130;41.564;23.280;2024-01-30T06:59:22;100834.16;;;3.05;49.54
6194;BME280;3130;41.564;23.280;2024-01-30T07:01:49;100835.00;;;3.10;49.45
6194;BME280;3130;41.564;23.280;2024-01-30T07:04:17;100842.63;;;3.21;48.96
6194;BME280;3130;41.564;23.280;2024-01-30T07:06:44;100835.00;;;3.18;48.92
6194;BME280;3130;41.564;23.280;2024-01-30T07:09:12;100835.84;;;3.12;49.21
6194;BME280;3130;41.564;23.280;2024-01-30T07:11:39;100845.16;;;3.21;48.83
6194;BME280;3130;41.564;23.280;2024-01-30T07:14:08;100838.41;;;3.41;48.82
6194;BME280;3130;41.564;23.280;2024-01-30T07:16:36;100840.91;;;3.57;48.26
6194;BME280;3130;41.564;23.280;2024-01-30T07:19:03;100840.06;;;3.49;48.04
6194;BME280;3130;41.564;23.280;2024-01-30T07:21:30;100835.84;;;3.53;48.02
6194;BME280;3130;41.564;23.280;2024-01-30T07:23:58;100839.22;;;3.37;48.33
6194;BME280;3130;41.564;23.280;2024-01-30T07:26:25;100835.00;;;3.60;48.06
6194;BME280;3130;41.564;23.280;2024-01-30T07:28:52;100817.22;;;3.58;48.18
6194;BME280;3130;41.564;23.280;2024-01-30T07:31:21;100845.81;;;4.27;47.65
6194;BME280;3130;41.564;23.280;2024-01-30T07:33:49;100664.75;;;4.21;45.69
6194;BME280;3130;41.564;23.280;2024-01-30T07:36:16;100846.44;;;7.11;41.66
6194;BME280;3130;41.564;23.280;2024-01-30T07:38:43;100839.16;;;8.32;38.41
6194;BME280;3130;41.564;23.280;2024-01-30T07:41:11;100838.97;;;10.15;35.07
6194;BME280;3130;41.564;23.280;2024-01-30T07:43:38;100838.09;;;12.26;31.96
6194;BME280;3130;41.564;23.280;2024-01-30T07:46:05;100772.88;;;14.14;28.73
6194;BME280;3130;41.564;23.280;2024-01-30T07:48:34;100800.00;;;14.59;27.25
6194;BME280;3130;41.564;23.280;2024-01-30T07:51:02;100834.09;;;17.30;24.37
6194;BME280;3130;41.564;23.280;2024-01-30T07:53:29;100834.09;;;17.30;24.37
6194;BME280;3130;41.564;23.280;2024-01-30T07:55:56;100777.25;;;18.26;21.50
6194;BME280;3130;41.564;23.280;2024-01-30T07:58:24;100817.47;;;18.19;22.54
6194;BME280;3130;41.564;23.280;2024-01-30T08:00:53;100837.50;;;18.87;21.52
6194;BME280;3130;41.564;23.280;2024-01-30T08:03:22;100714.63;;;16.59;22.02
6194;BME280;3130;41.564;23.280;2024-01-30T08:05:51;100829.44;;;19.57;20.54
6194;BME280;3130;41.564;23.280;2024-01-30T08:08:18;100806.91;;;21.15;19.01
6194;BME280;3130;41.564;23.280;2024-01-30T08:10:45;100832.31;;;20.29;19.03
6194;BME280;3130;41.564;23.280;2024-01-30T08:13:14;100828.19;;;18.43;21.20
6194;BME280;3130;41.564;23.280;2024-01-30T08:15:41;100775.13;;;20.74;19.15
6194;BME280;3130;41.564;23.280;2024-01-30T08:18:08;100748.25;;;22.31;17.38
6194;BME280;3130;41.564;23.280;2024-01-30T08:20:35;100814.16;;;23.32;17.02
6194;BME280;3130;41.564;23.280;2024-01-30T08:25:31;100775.91;;;21.68;nan
6194;BME280;3130;41.564;23.280;2024-01-30T08:27:58;100832.34;;;21.92;nan
6194;BME280;3130;41.564;23.280;2024-01-30T08:30:26;100825.13;;;21.04;nan
6194;BME280;3130;41.564;23.280;2024-01-30T08:32:53;100823.88;;;18.96;nan
6194;BME280;3130;41.564;23.280;2024-01-30T08:35:20;100753.69;;;20.58;nan
6194;BME280;3130;41.564;23.280;2024-01-30T08:37:48;100825.38;;;20.40;nan
6194;BME280;3130;41.564;23.280;2024-01-30T08:40:16;100674.13;;;17.31;nan
6194;BME280;3130;41.564;23.280;2024-01-30T08:42:44;100790.31;;;17.40;nan
6194;BME280;3130;41.564;23.280;2024-01-30T08:45:11;100813.41;;;15.55;nan
6194;BME280;3130;41.564;23.280;2024-01-30T08:47:38;100789.44;;;13.09;nan
6194;BME280;3130;41.564;23.280;2024-01-30T08:50:07;100807.88;;;11.09;nan
6194;BME280;3130;41.564;23.280;2024-01-30T08:52:35;100766.94;;;9.94;nan
6194;BME280;3130;41.564;23.280;2024-01-30T08:55:02;100813.44;;;9.14;nan
6194;BME280;3130;41.564;23.280;2024-01-30T08:57:31;100808.75;;;8.60;nan
6194;BME280;3130;41.564;23.280;2024-01-30T08:59:59;100803.66;;;8.17;nan
6194;BME280;3130;41.564;23.280;2024-01-30T09:02:26;100801.41;;;7.59;nan
6194;BME280;3130;41.564;23.280;2024-01-30T09:04:53;100805.63;;;6.54;nan
6194;BME280;3130;41.564;23.280;2024-01-30T09:07:21;100649.00;;;5.56;nan
6194;BME280;3130;41.564;23.280;2024-01-30T09:09:48;100808.19;;;6.53;nan
6194;BME280;3130;41.564;23.280;2024-01-30T09:12:15;100785.63;;;6.24;nan
6194;BME280;3130;41.564;23.280;2024-01-30T09:14:44;100814.47;;;6.26;nan
6194;BME280;3130;41.564;23.280;2024-01-30T09:17:12;100691.34;;;5.63;nan
6194;BME280;3130;41.564;23.280;2024-01-30T09:19:39;100783.66;;;6.44;nan
6194;BME280;3130;41.564;23.280;2024-01-30T09:22:07;100795.41;;;6.57;nan
6194;BME280;3130;41.564;23.280;2024-01-30T09:24:34;100797.34;;;6.40;nan
6194;BME280;3130;41.564;23.280;2024-01-30T09:27:01;100784.56;;;6.42;nan
6194;BME280;3130;41.564;23.280;2024-01-30T09:29:28;100787.28;;;6.28;nan
6194;BME280;3130;41.564;23.280;2024-01-30T09:31:57;100804.50;;;6.73;nan
6194;BME280;3130;41.564;23.280;2024-01-30T09:34:24;100796.84;;;6.75;nan
6194;BME280;3130;41.564;23.280;2024-01-30T09:36:52;100791.06;;;6.62;nan
6194;BME280;3130;41.564;23.280;2024-01-30T09:39:19;100792.84;;;6.57;nan
6194;BME280;3130;41.564;23.280;2024-01-30T09:41:55;100696.00;;;5.98;nan
6194;BME280;3130;41.564;23.280;2024-01-30T09:44:29;100798.09;;;6.47;nan
6194;BME280;3130;41.564;23.280;2024-01-30T09:46:58;100783.72;;;6.41;nan
6194;BME280;3130;41.564;23.280;2024-01-30T09:49:30;100775.44;;;6.26;nan
6194;BME280;3130;41.564;23.280;2024-01-30T09:51:58;100742.53;;;6.11;nan
6194;BME280;3130;41.564;23.280;2024-01-30T09:54:26;100754.03;;;6.40;nan
6194;BME280;3130;41.564;23.280;2024-01-30T09:56:53;100784.31;;;6.60;nan
6194;BME280;3130;41.564;23.280;2024-01-30T09:59:20;100769.09;;;6.55;nan
6194;BME280;3130;41.564;23.280;2024-01-30T10:01:47;100770.66;;;6.62;nan
6194;BME280;3130;41.564;23.280;2024-01-30T10:04:17;100734.28;;;6.54;nan
6194;BME280;3130;41.564;23.280;2024-01-30T10:06:44;100761.59;;;7.00;nan
6194;BME280;3130;41.564;23.280;2024-01-30T10:09:12;100621.94;;;6.13;nan
6194;BME280;3130;41.564;23.280;2024-01-30T10:11:39;100763.84;;;6.64;nan
6194;BME280;3130;41.564;23.280;2024-01-30T10:14:06;100703.78;;;6.48;nan
6194;BME280;3130;41.564;23.280;2024-01-30T10:16:34;100652.19;;;6.34;nan
6194;BME280;3130;41.564;23.280;2024-01-30T10:19:01;100670.69;;;6.45;nan
6194;BME280;3130;41.564;23.280;2024-01-30T10:21:31;100652.13;;;6.39;nan
6194;BME280;3130;41.564;23.280;2024-01-30T10:23:58;100735.19;;;7.03;nan
6194;BME280;3130;41.564;23.280;2024-01-30T10:26:26;100686.47;;;6.68;nan
6194;BME280;3130;41.564;23.280;2024-01-30T10:28:55;100721.22;;;6.75;nan
6194;BME280;3130;41.564;23.280;2024-01-30T10:31:22;100718.31;;;6.95;nan
6194;BME280;3130;41.564;23.280;2024-01-30T10:33:49;100716.69;;;6.91;nan
6194;BME280;3130;41.564;23.280;2024-01-30T10:36:17;100547.63;;;6.42;nan
6194;BME280;3130;41.564;23.280;2024-01-30T10:38:47;100713.88;;;7.52;nan
6194;BME280;3130;41.564;23.280;2024-01-30T10:41:20;100666.47;;;7.41;nan
6194;BME280;3130;41.564;23.280;2024-01-30T10:43:58;100700.16;;;7.98;nan
6194;BME280;3130;41.564;23.280;2024-01-30T10:46:32;100692.41;;;8.01;nan
6194;BME280;3130;41.564;23.280;2024-01-30T10:49:00;100692.50;;;7.98;nan
6194;BME280;3130;41.564;23.280;2024-01-30T10:51:28;100689.56;;;7.76;nan
6194;BME280;3130;41.564;23.280;2024-01-30T10:53:57;100685.06;;;7.87;nan
6194;BME280;3130;41.564;23.280;2024-01-30T10:56:25;100675.91;;;8.17;nan
6194;BME280;3130;41.564;23.280;2024-01-30T10:58:53;100678.66;;;8.08;nan
6194;BME280;3130;41.564;23.280;2024-01-30T11:01:22;100670.94;;;7.71;nan
6194;BME280;3130;41.564;23.280;2024-01-30T11:03:50;100665.66;;;7.80;nan
6194;BME280;3130;41.564;23.280;2024-01-30T11:06:17;100648.75;;;8.13;nan
6194;BME280;3130;41.564;23.280;2024-01-30T11:08:45;100633.97;;;7.88;nan
6194;BME280;3130;41.564;23.280;2024-01-30T11:11:16;100614.00;;;7.67;nan
6194;BME280;3130;41.564;23.280;2024-01-30T11:13:44;100645.78;;;7.94;nan
6194;BME280;3130;41.564;23.280;2024-01-30T11:16:11;100639.81;;;8.32;nan
6194;BME280;3130;41.564;23.280;2024-01-30T11:18:39;100611.97;;;8.20;nan
6194;BME280;3130;41.564;23.280;2024-01-30T11:21:07;100604.56;;;8.08;nan
6194;BME280;3130;41.564;23.280;2024-01-30T11:23:34;100590.19;;;8.39;nan
6194;BME280;3130;41.564;23.280;2024-01-30T11:26:04;100571.56;;;8.36;nan
6194;BME280;3130;41.564;23.280;2024-01-30T11:28:34;100478.44;;;8.11;nan
6194;BME280;3130;41.564;23.280;2024-01-30T11:31:04;100575.09;;;8.64;nan
6194;BME280;3130;41.564;23.280;2024-01-30T11:33:32;100597.75;;;8.77;nan
6194;BME280;3130;41.564;23.280;2024-01-30T11:36:00;100595.09;;;9.13;nan
6194;BME280;3130;41.564;23.280;2024-01-30T11:38:28;100578.44;;;8.67;nan
6194;BME280;3130;41.564;23.280;2024-01-30T11:40:56;100573.69;;;8.52;nan
6194;BME280;3130;41.564;23.280;2024-01-30T11:43:23;100598.28;;;8.90;nan
6194;BME280;3130;41.564;23.280;2024-01-30T11:45:52;100599.41;;;9.10;nan
6194;BME280;3130;41.564;23.280;2024-01-30T11:48:20;100587.69;;;9.03;nan
6194;BME280;3130;41.564;23.280;2024-01-30T11:50:47;100554.78;;;8.90;nan
6194;BME280;3130;41.564;23.280;2024-01-30T11:53:14;100579.81;;;9.39;nan
6194;BME280;3130;41.564;23.280;2024-01-30T11:55:42;100488.06;;;8.97;nan
6194;BME280;3130;41.564;23.280;2024-01-30T11:58:16;100575.69;;;9.63;nan
6194;BME280;3130;41.564;23.280;2024-01-30T12:00:53;100435.59;;;8.84;nan
6194;BME280;3130;41.564;23.280;2024-01-30T12:03:21;100561.09;;;9.66;nan
6194;BME280;3130;41.564;23.280;2024-01-30T12:05:55;100468.94;;;9.37;nan
6194;BME280;3130;41.564;23.280;2024-01-30T12:08:23;100529.41;;;9.41;nan
6194;BME280;3130;41.564;23.280;2024-01-30T12:10:56;100560.34;;;9.63;nan
6194;BME280;3130;41.564;23.280;2024-01-30T12:13:25;100543.13;;;9.94;nan
6194;BME280;3130;41.564;23.280;2024-01-30T12:15:54;100468.53;;;9.49;nan
6194;BME280;3130;41.564;23.280;2024-01-30T12:18:21;100512.28;;;9.14;nan
6194;BME280;3130;41.564;23.280;2024-01-30T12:20:57;100507.16;;;9.43;nan
6194;BME280;3130;41.564;23.280;2024-01-30T12:23:25;100534.13;;;9.55;nan
6194;BME280;3130;41.564;23.280;2024-01-30T12:25:52;100395.25;;;9.19;nan
6194;BME280;3130;41.564;23.280;2024-01-30T12:28:20;100454.41;;;9.91;nan
6194;BME280;3130;41.564;23.280;2024-01-30T12:30:47;100514.03;;;10.22;nan
6194;BME280;3130;41.564;23.280;2024-01-30T12:33:17;100337.03;;;9.00;nan
6194;BME280;3130;41.564;23.280;2024-01-30T12:35:48;100474.94;;;9.90;nan
6194;BME280;3130;41.564;23.280;2024-01-30T12:38:15;100511.13;;;10.32;nan
6194;BME280;3130;41.564;23.280;2024-01-30T12:40:43;100518.16;;;10.02;nan
6194;BME280;3130;41.564;23.280;2024-01-30T12:43:11;100520.84;;;9.70;nan
6194;BME280;3130;41.564;23.280;2024-01-30T12:45:38;100502.50;;;9.83;nan
6194;BME280;3130;41.564;23.280;2024-01-30T12:48:06;100499.91;;;9.57;nan
6194;BME280;3130;41.564;23.280;2024-01-30T12:50:35;100446.19;;;9.28;nan
6194;BME280;3130;41.564;23.280;2024-01-30T12:53:02;100507.06;;;9.74;nan
6194;BME280;3130;41.564;23.280;2024-01-30T12:55:30;100485.13;;;9.91;nan
6194;BME280;3130;41.564;23.280;2024-01-30T12:57:59;100502.31;;;10.15;nan
6194;BME280;3130;41.564;23.280;2024-01-30T13:00:26;100490.84;;;10.26;nan
6194;BME280;3130;41.564;23.280;2024-01-30T13:02:53;100503.47;;;10.06;nan
6194;BME280;3130;41.564;23.280;2024-01-30T13:05:21;100497.38;;;10.35;nan
6194;BME280;3130;41.564;23.280;2024-01-30T13:07:50;100508.56;;;10.32;nan
6194;BME280;3130;41.564;23.280;2024-01-30T13:10:19;100361.31;;;8.87;nan
6194;BME280;3130;41.564;23.280;2024-01-30T13:12:46;100506.75;;;9.57;nan
6194;BME280;3130;41.564;23.280;2024-01-30T13:15:14;100443.88;;;9.19;nan
6194;BME280;3130;41.564;23.280;2024-01-30T13:17:41;100476.19;;;9.51;nan
6194;BME280;3130;41.564;23.280;2024-01-30T13:20:10;100494.16;;;9.77;nan
6194;BME280;3130;41.564;23.280;2024-01-30T13:22:37;100463.00;;;9.63;nan